KBJJ/BJJ METAR and TAF weather

Enter ICAO airport designator
Station Type Date Time Source
KBJJ METAR 2021/03/02 15:56 UTC NOAA

KBJJ 021556Z AUTO 18005KT 10SM CLR M04/M11 A3029 RMK AO2 SLP272 T10391111


Station Type Date Time Source
KBJJ Decoded METAR 2021/03/02 15:56 UTC NOAA

WOOSTER WAYNE COUNTY AIRPORT, OH, United States (KBJJ) 40-52N 81-53W 343M
Mar 02, 2021 - 10:56 AM EST / 2021.03.02 1556 UTC
Wind: from the S (180 degrees) at 6 MPH (5 KT):0
Visibility: 10 mile(s):0
Sky conditions: clear
Temperature: 25.0 F (-3.9 C)
Windchill: 17 F (-8 C):1
Dew Point: 12.0 F (-11.1 C)
Relative Humidity: 57%
Pressure (altimeter): 30.29 in. Hg (1025 hPa)
ob: KBJJ 021556Z AUTO 18005KT 10SM CLR M04/M11 A3029 RMK AO2 SLP272 T10391111
cycle: 16

Station Type Date Time Source
KBJJ TAF UTC NOAA

Error!

Example: see airport list